createdAt,value
2022-07-25T00:00:44.929Z,938.55
2022-07-25T00:01:44.992Z,938.57
2022-07-25T00:02:44.966Z,938.58
2022-07-25T00:03:44.973Z,938.55
2022-07-25T00:04:45.092Z,938.57
2022-07-25T00:05:45.004Z,938.49
2022-07-25T00:06:45.016Z,938.57
2022-07-25T00:07:45.031Z,938.54
2022-07-25T00:08:45.046Z,938.55
2022-07-25T00:09:45.059Z,938.58
2022-07-25T00:10:45.073Z,938.56
2022-07-25T00:11:45.091Z,938.56
2022-07-25T00:12:45.104Z,938.58
2022-07-25T00:13:45.117Z,938.56
2022-07-25T00:14:45.133Z,938.54
2022-07-25T00:15:45.197Z,938.57
2022-07-25T00:16:45.161Z,938.57
2022-07-25T00:17:45.177Z,938.61
2022-07-25T00:18:45.194Z,938.57
2022-07-25T00:19:45.206Z,938.59
2022-07-25T00:20:45.221Z,938.60
2022-07-25T00:21:45.240Z,938.63
2022-07-25T00:22:45.250Z,938.68
2022-07-25T00:23:45.267Z,938.62
2022-07-25T00:24:45.279Z,938.67
2022-07-25T00:25:45.298Z,938.64
2022-07-25T00:26:45.307Z,938.63
2022-07-25T00:27:45.325Z,938.62
2022-07-25T00:28:45.339Z,938.61
2022-07-25T00:29:45.362Z,938.65
2022-07-25T00:30:45.403Z,938.61
2022-07-25T00:31:45.442Z,938.66
2022-07-25T00:32:45.395Z,938.62
2022-07-25T00:33:45.413Z,938.69
2022-07-25T00:34:45.426Z,938.67
2022-07-25T00:35:45.440Z,938.67
2022-07-25T00:36:45.453Z,938.65
2022-07-25T00:37:45.469Z,938.70
2022-07-25T00:38:45.484Z,938.68
2022-07-25T00:39:45.498Z,938.71
2022-07-25T00:40:45.512Z,938.69
2022-07-25T00:41:45.525Z,938.71
2022-07-25T00:42:45.554Z,938.67
2022-07-25T00:43:45.556Z,938.65
2022-07-25T00:44:45.575Z,938.67
2022-07-25T00:45:45.586Z,938.66
2022-07-25T00:46:45.688Z,938.64
2022-07-25T00:47:45.615Z,938.67
2022-07-25T00:48:45.670Z,938.63
2022-07-25T00:49:45.643Z,938.64
2022-07-25T00:50:45.657Z,938.64
2022-07-25T00:51:45.673Z,938.65
2022-07-25T00:52:45.688Z,938.65
2022-07-25T00:53:45.700Z,938.68
2022-07-25T00:54:45.715Z,938.68
2022-07-25T00:55:45.731Z,938.65
2022-07-25T00:56:45.745Z,938.67
2022-07-25T00:57:45.759Z,938.67
2022-07-25T00:58:45.775Z,938.67
2022-07-25T00:59:45.790Z,938.64
2022-07-25T01:00:45.804Z,938.63
2022-07-25T01:01:45.900Z,938.63
2022-07-25T01:02:45.879Z,938.68
2022-07-25T01:03:45.848Z,938.67
2022-07-25T01:04:45.861Z,938.71
2022-07-25T01:05:50.169Z,938.70
2022-07-25T01:06:45.893Z,938.75
2022-07-25T01:07:45.903Z,938.74
2022-07-25T01:08:45.918Z,938.73
2022-07-25T01:09:45.938Z,938.74
2022-07-25T01:10:45.949Z,938.74
2022-07-25T01:11:45.965Z,938.76
2022-07-25T01:12:45.979Z,938.75
2022-07-25T01:13:45.998Z,938.76
2022-07-25T01:14:46.006Z,938.76
2022-07-25T01:15:46.066Z,938.80
2022-07-25T01:16:46.037Z,938.78
2022-07-25T01:17:46.049Z,938.82
2022-07-25T01:18:46.064Z,938.83
2022-07-25T01:19:46.079Z,938.81
2022-07-25T01:20:46.092Z,938.79
2022-07-25T01:21:46.111Z,938.82
2022-07-25T01:22:46.122Z,938.81
2022-07-25T01:23:46.137Z,938.80
2022-07-25T01:24:46.149Z,938.78
2022-07-25T01:25:46.168Z,938.77
2022-07-25T01:26:46.179Z,938.80
2022-07-25T01:27:49.867Z,938.85
2022-07-25T01:28:46.210Z,938.83
2022-07-25T01:29:46.223Z,938.82
2022-07-25T01:30:46.308Z,938.85
2022-07-25T01:31:46.255Z,938.86
2022-07-25T01:32:46.266Z,938.85
2022-07-25T01:33:46.284Z,938.86
2022-07-25T01:34:46.295Z,938.85
2022-07-25T01:35:46.308Z,938.91
2022-07-25T01:36:46.322Z,938.89
2022-07-25T01:37:46.428Z,938.86
2022-07-25T01:38:46.358Z,938.89
2022-07-25T01:39:46.368Z,938.87
2022-07-25T01:40:46.387Z,938.92
2022-07-25T01:41:46.398Z,938.91
2022-07-25T01:42:46.411Z,938.92
2022-07-25T01:43:46.427Z,938.95
2022-07-25T01:44:46.438Z,938.93
2022-07-25T01:45:46.527Z,938.95
2022-07-25T01:46:46.558Z,938.92
2022-07-25T01:47:46.485Z,938.93
2022-07-25T01:48:46.554Z,938.92
2022-07-25T01:49:46.513Z,938.88
2022-07-25T01:50:46.528Z,938.90
2022-07-25T01:51:46.544Z,938.86
2022-07-25T01:52:46.571Z,938.84
2022-07-25T01:53:46.569Z,938.87
2022-07-25T01:54:46.584Z,938.82
2022-07-25T01:55:46.599Z,938.86
2022-07-25T01:56:46.955Z,938.84
2022-07-25T01:57:49.802Z,938.80
2022-07-25T01:58:46.641Z,938.80
2022-07-25T01:59:46.655Z,938.80
2022-07-25T02:00:46.669Z,938.82
2022-07-25T02:01:46.825Z,938.79
2022-07-25T02:02:46.701Z,938.81
2022-07-25T02:03:46.714Z,938.77
2022-07-25T02:04:46.763Z,938.77
2022-07-25T02:05:46.744Z,938.77
2022-07-25T02:06:46.757Z,938.80
2022-07-25T02:07:46.775Z,938.78
2022-07-25T02:08:46.792Z,938.78
2022-07-25T02:09:46.802Z,938.80
2022-07-25T02:10:46.817Z,938.81
2022-07-25T02:11:46.833Z,938.80
2022-07-25T02:12:46.843Z,938.81
2022-07-25T02:13:46.863Z,938.81
2022-07-25T02:14:46.877Z,938.81
2022-07-25T02:15:46.885Z,938.81
2022-07-25T02:16:46.935Z,938.81
2022-07-25T02:17:46.916Z,938.81
2022-07-25T02:18:47.736Z,938.81
2022-07-25T02:19:46.945Z,938.81
2022-07-25T02:20:46.957Z,938.80
2022-07-25T02:21:46.975Z,938.79
2022-07-25T02:22:46.988Z,938.78
2022-07-25T02:23:47.008Z,938.75
2022-07-25T02:24:47.022Z,938.75
2022-07-25T02:25:47.031Z,938.75
2022-07-25T02:26:47.046Z,938.81
2022-07-25T02:27:47.057Z,938.74
2022-07-25T02:28:47.073Z,938.77
2022-07-25T02:29:47.089Z,938.74
2022-07-25T02:30:47.147Z,938.72
2022-07-25T02:31:47.115Z,938.74
2022-07-25T02:32:47.130Z,938.72
2022-07-25T02:33:47.146Z,938.70
2022-07-25T02:34:47.165Z,938.74
2022-07-25T02:35:47.177Z,938.76
2022-07-25T02:36:47.187Z,938.75
2022-07-25T02:37:47.252Z,938.76
2022-07-25T02:38:47.215Z,938.74
2022-07-25T02:39:47.231Z,938.78
2022-07-25T02:40:47.244Z,938.75
2022-07-25T02:41:47.259Z,938.75
2022-07-25T02:42:47.273Z,938.77
2022-07-25T02:43:47.287Z,938.76
2022-07-25T02:44:47.303Z,938.75
2022-07-25T02:45:47.386Z,938.77
2022-07-25T02:46:47.334Z,938.74
2022-07-25T02:47:47.350Z,938.69
2022-07-25T02:48:47.399Z,938.73
2022-07-25T02:49:47.374Z,938.70
2022-07-25T02:50:47.390Z,938.69
2022-07-25T02:51:47.401Z,938.72
2022-07-25T02:52:47.417Z,938.72
2022-07-25T02:53:57.064Z,938.72
2022-07-25T02:54:47.443Z,938.71
2022-07-25T02:55:47.460Z,938.76
2022-07-25T02:56:47.471Z,938.69
2022-07-25T02:57:47.487Z,938.71
2022-07-25T02:58:47.504Z,938.74
2022-07-25T02:59:47.517Z,938.72
2022-07-25T03:00:47.681Z,938.73
2022-07-25T03:01:47.633Z,938.72
2022-07-25T03:02:47.560Z,938.72
2022-07-25T03:03:47.658Z,938.73
2022-07-25T03:04:47.587Z,938.70
2022-07-25T03:05:47.603Z,938.71
2022-07-25T03:06:47.618Z,938.73
2022-07-25T03:07:47.631Z,938.73
2022-07-25T03:08:47.647Z,938.70
2022-07-25T03:09:47.660Z,938.72
2022-07-25T03:10:47.677Z,938.69
2022-07-25T03:11:47.690Z,938.67
2022-07-25T03:12:47.702Z,938.65
2022-07-25T03:13:47.714Z,938.65
2022-07-25T03:14:47.732Z,938.66
2022-07-25T03:15:47.746Z,938.68
2022-07-25T03:16:47.812Z,938.66
2022-07-25T03:17:47.773Z,938.67
2022-07-25T03:18:47.791Z,938.72
2022-07-25T03:19:47.803Z,938.69
2022-07-25T03:20:47.814Z,938.67
2022-07-25T03:21:47.832Z,938.70
2022-07-25T03:22:47.844Z,938.64
2022-07-25T03:23:52.126Z,938.69
2022-07-25T03:24:47.873Z,938.67
2022-07-25T03:25:47.888Z,938.67
2022-07-25T03:26:47.905Z,938.62
2022-07-25T03:27:47.915Z,938.58
2022-07-25T03:28:47.929Z,938.63
2022-07-25T03:29:47.944Z,938.60
2022-07-25T03:30:47.959Z,938.60
2022-07-25T03:31:48.046Z,938.59
2022-07-25T03:32:47.991Z,938.60
2022-07-25T03:33:48.001Z,938.62
2022-07-25T03:34:48.016Z,938.61
2022-07-25T03:35:48.055Z,938.58
2022-07-25T03:36:48.045Z,938.58
2022-07-25T03:37:48.059Z,938.57
2022-07-25T03:38:48.071Z,938.57
2022-07-25T03:39:48.086Z,938.57
2022-07-25T03:40:48.101Z,938.54
2022-07-25T03:41:48.114Z,938.55
2022-07-25T03:42:48.130Z,938.55
2022-07-25T03:43:48.141Z,938.54
2022-07-25T03:44:48.157Z,938.57
2022-07-25T03:45:48.251Z,938.53
2022-07-25T03:46:48.185Z,938.56
2022-07-25T03:47:48.203Z,938.56
2022-07-25T03:48:48.297Z,938.56
2022-07-25T03:49:48.229Z,938.54
2022-07-25T03:50:48.242Z,938.53
2022-07-25T03:51:48.258Z,938.49
2022-07-25T03:52:48.270Z,938.47
2022-07-25T03:53:48.286Z,938.52
2022-07-25T03:54:48.301Z,938.48
2022-07-25T03:55:48.314Z,938.48
2022-07-25T03:56:48.329Z,938.49
2022-07-25T03:57:48.340Z,938.52
2022-07-25T03:58:48.360Z,938.54
2022-07-25T03:59:48.371Z,938.55
2022-07-25T04:00:48.444Z,938.53
2022-07-25T04:01:48.464Z,938.57
2022-07-25T04:02:48.482Z,938.56
2022-07-25T04:03:48.428Z,938.53
2022-07-25T04:04:48.440Z,938.56
2022-07-25T04:05:48.453Z,938.56
2022-07-25T04:06:48.468Z,938.54
2022-07-25T04:07:48.483Z,938.56
2022-07-25T04:08:48.497Z,938.57
2022-07-25T04:09:48.512Z,938.55
2022-07-25T04:10:48.524Z,938.53
2022-07-25T04:11:48.540Z,938.58
2022-07-25T04:12:48.553Z,938.58
2022-07-25T04:13:48.570Z,938.54
2022-07-25T04:14:48.582Z,938.56
2022-07-25T04:15:48.598Z,938.57
2022-07-25T04:16:48.690Z,938.55
2022-07-25T04:17:48.624Z,938.57
2022-07-25T04:18:48.645Z,938.55
2022-07-25T04:19:48.655Z,938.57
2022-07-25T04:20:48.667Z,938.59
2022-07-25T04:21:48.682Z,938.54
2022-07-25T04:22:48.696Z,938.53
2022-07-25T04:23:48.732Z,938.54
2022-07-25T04:24:48.723Z,938.55
2022-07-25T04:25:48.738Z,938.55
2022-07-25T04:26:48.754Z,938.53
2022-07-25T04:27:48.766Z,938.53
2022-07-25T04:28:48.781Z,938.57
2022-07-25T04:29:48.792Z,938.55
2022-07-25T04:30:48.810Z,938.51
2022-07-25T04:31:48.933Z,938.57
2022-07-25T04:32:48.834Z,938.58
2022-07-25T04:33:48.851Z,938.56
2022-07-25T04:34:48.863Z,938.57
2022-07-25T04:35:48.880Z,938.59
2022-07-25T04:36:48.890Z,938.58
2022-07-25T04:37:48.904Z,938.55
2022-07-25T04:38:48.921Z,938.55
2022-07-25T04:39:48.934Z,938.54
2022-07-25T04:40:48.953Z,938.55
2022-07-25T04:41:48.962Z,938.58
2022-07-25T04:42:48.977Z,938.63
2022-07-25T04:43:49.180Z,938.58
2022-07-25T04:44:49.006Z,938.59
2022-07-25T04:45:49.108Z,938.55
2022-07-25T04:46:49.032Z,938.55
2022-07-25T04:47:49.047Z,938.56
2022-07-25T04:48:49.135Z,938.57
2022-07-25T04:49:49.075Z,938.55
2022-07-25T04:50:49.089Z,938.56
2022-07-25T04:51:49.103Z,938.56
2022-07-25T04:52:49.117Z,938.60
2022-07-25T04:53:49.132Z,938.55
2022-07-25T04:54:49.144Z,938.57
2022-07-25T04:55:49.157Z,938.54
2022-07-25T04:56:49.173Z,938.51
2022-07-25T04:57:49.186Z,938.52
2022-07-25T04:58:49.202Z,938.51
2022-07-25T04:59:49.214Z,938.53
2022-07-25T05:00:49.320Z,938.51
2022-07-25T05:01:49.272Z,938.49
2022-07-25T05:02:49.256Z,938.51
2022-07-25T05:03:50.108Z,938.49
2022-07-25T05:04:52.081Z,938.52
2022-07-25T05:05:49.398Z,938.53
2022-07-25T05:06:49.311Z,938.51
2022-07-25T05:07:49.333Z,938.49
2022-07-25T05:08:49.344Z,938.47
2022-07-25T05:09:49.353Z,938.45
2022-07-25T05:10:49.373Z,938.43
2022-07-25T05:11:55.687Z,938.40
2022-07-25T05:12:49.396Z,938.40
2022-07-25T05:13:49.471Z,938.39
2022-07-25T05:14:49.422Z,938.39
2022-07-25T05:15:49.443Z,938.38
2022-07-25T05:16:49.558Z,938.40
2022-07-25T05:17:49.466Z,938.36
2022-07-25T05:18:49.481Z,938.39
2022-07-25T05:19:49.494Z,938.37
2022-07-25T05:20:49.507Z,938.40
2022-07-25T05:21:49.525Z,938.37
2022-07-25T05:22:49.537Z,938.37
2022-07-25T05:23:49.549Z,938.38
2022-07-25T05:24:49.568Z,938.36
2022-07-25T05:25:49.580Z,938.35
2022-07-25T05:26:49.592Z,938.34
2022-07-25T05:27:49.609Z,938.32
2022-07-25T05:28:49.617Z,938.34
2022-07-25T05:29:49.635Z,938.29
2022-07-25T05:30:49.650Z,938.28
2022-07-25T05:31:49.728Z,938.26
2022-07-25T05:32:49.673Z,938.26
2022-07-25T05:33:49.703Z,938.28
2022-07-25T05:34:49.702Z,938.27
2022-07-25T05:35:49.716Z,938.23
2022-07-25T05:36:49.730Z,938.26
2022-07-25T05:37:49.745Z,938.22
2022-07-25T05:38:49.757Z,938.24
2022-07-25T05:39:49.772Z,938.26
2022-07-25T05:40:49.785Z,938.24
2022-07-25T05:41:49.803Z,938.28
2022-07-25T05:42:49.814Z,938.24
2022-07-25T05:43:49.829Z,938.24
2022-07-25T05:44:49.843Z,938.24
2022-07-25T05:45:49.855Z,938.21
2022-07-25T05:46:49.901Z,938.22
2022-07-25T05:47:49.886Z,938.22
2022-07-25T05:48:49.943Z,938.21
2022-07-25T05:49:49.919Z,938.18
2022-07-25T05:50:49.926Z,938.19
2022-07-25T05:51:49.943Z,938.14
2022-07-25T05:52:49.959Z,938.15
2022-07-25T05:53:49.996Z,938.15
2022-07-25T05:54:50.013Z,938.15
2022-07-25T05:55:49.997Z,938.13
2022-07-25T05:56:50.035Z,938.13
2022-07-25T05:57:50.059Z,938.10
2022-07-25T05:58:50.056Z,938.09
2022-07-25T05:59:50.109Z,938.10
2022-07-25T06:00:50.064Z,938.09
2022-07-25T06:01:50.271Z,938.08
2022-07-25T06:02:50.344Z,938.10
2022-07-25T06:03:50.206Z,938.03
2022-07-25T06:04:50.124Z,938.06
2022-07-25T06:05:50.136Z,938.05
2022-07-25T06:06:50.150Z,938.00
2022-07-25T06:07:50.162Z,938.03
2022-07-25T06:08:50.177Z,938.03
2022-07-25T06:09:50.191Z,938.04
2022-07-25T06:10:50.203Z,938.04
2022-07-25T06:11:58.154Z,938.04
2022-07-25T06:12:50.233Z,938.05
2022-07-25T06:13:50.248Z,938.04
2022-07-25T06:14:50.259Z,938.06
2022-07-25T06:15:50.315Z,938.02
2022-07-25T06:16:50.336Z,938.01
2022-07-25T06:17:50.301Z,938.01
2022-07-25T06:18:50.315Z,938.03
2022-07-25T06:19:50.329Z,938.04
2022-07-25T06:20:50.342Z,938.05
2022-07-25T06:21:50.357Z,938.02
2022-07-25T06:22:50.370Z,938.05
2022-07-25T06:23:50.383Z,938.05
2022-07-25T06:24:50.399Z,938.04
2022-07-25T06:25:50.699Z,938.06
2022-07-25T06:26:50.427Z,938.03
2022-07-25T06:27:50.440Z,938.02
2022-07-25T06:28:50.452Z,938.02
2022-07-25T06:29:50.467Z,938.00
2022-07-25T06:30:50.482Z,938.00
2022-07-25T06:31:50.589Z,938.02
2022-07-25T06:32:50.510Z,938.02
2022-07-25T06:33:50.523Z,938.02
2022-07-25T06:34:50.538Z,938.03
2022-07-25T06:35:50.549Z,938.00
2022-07-25T06:36:50.565Z,938.01
2022-07-25T06:37:50.577Z,937.94
2022-07-25T06:38:50.593Z,937.98
2022-07-25T06:39:50.606Z,937.95
2022-07-25T06:40:50.618Z,937.94
2022-07-25T06:41:50.632Z,937.95
2022-07-25T06:42:50.646Z,937.94
2022-07-25T06:43:50.661Z,937.97
2022-07-25T06:44:50.673Z,937.98
2022-07-25T06:45:50.688Z,937.93
2022-07-25T06:46:50.737Z,937.95
2022-07-25T06:47:50.716Z,937.96
2022-07-25T06:48:50.840Z,937.94
2022-07-25T06:49:50.744Z,937.96
2022-07-25T06:50:50.757Z,937.97
2022-07-25T06:51:50.772Z,937.97
2022-07-25T06:52:50.785Z,937.99
2022-07-25T06:53:50.802Z,937.99
2022-07-25T06:54:50.816Z,938.00
2022-07-25T06:55:50.828Z,938.00
2022-07-25T06:56:50.841Z,938.00
2022-07-25T06:57:50.854Z,938.01
2022-07-25T06:58:50.873Z,938.06
2022-07-25T06:59:50.883Z,938.09
2022-07-25T07:00:50.943Z,938.11
2022-07-25T07:01:51.771Z,938.09
2022-07-25T07:02:51.004Z,938.11
2022-07-25T07:03:51.043Z,938.12
2022-07-25T07:04:50.949Z,938.12
2022-07-25T07:05:50.968Z,938.09
2022-07-25T07:06:50.976Z,938.09
2022-07-25T07:07:50.994Z,938.10
2022-07-25T07:08:51.006Z,938.08
2022-07-25T07:09:51.019Z,938.12
2022-07-25T07:10:51.031Z,938.08
2022-07-25T07:11:51.049Z,938.07
2022-07-25T07:12:51.060Z,938.07
2022-07-25T07:13:51.079Z,938.02
2022-07-25T07:14:51.087Z,938.04
2022-07-25T07:15:51.331Z,938.03
2022-07-25T07:16:51.116Z,938.00
2022-07-25T07:17:51.127Z,938.03
2022-07-25T07:18:51.145Z,938.01
2022-07-25T07:19:51.158Z,937.96
2022-07-25T07:20:51.168Z,938.01
2022-07-25T07:21:51.184Z,938.00
2022-07-25T07:22:51.200Z,938.00
2022-07-25T07:23:53.701Z,937.97
2022-07-25T07:24:51.226Z,937.95
2022-07-25T07:25:51.239Z,937.97
2022-07-25T07:26:51.254Z,937.94
2022-07-25T07:27:51.275Z,937.92
2022-07-25T07:28:51.279Z,937.94
2022-07-25T07:29:51.295Z,937.94
2022-07-25T07:31:16.438Z,937.95
2022-07-25T07:31:51.399Z,937.96
2022-07-25T07:32:51.337Z,937.93
2022-07-25T07:33:51.353Z,937.93
2022-07-25T07:34:51.366Z,937.96
2022-07-25T07:35:51.378Z,937.98
2022-07-25T07:36:51.390Z,937.98
2022-07-25T07:37:51.404Z,938.01
2022-07-25T07:38:51.419Z,937.99
2022-07-25T07:39:51.432Z,937.97
2022-07-25T07:40:51.445Z,937.95
2022-07-25T07:41:51.457Z,937.93
2022-07-25T07:42:51.474Z,937.92
2022-07-25T07:43:51.489Z,937.89
2022-07-25T07:44:51.501Z,937.87
2022-07-25T07:45:51.513Z,937.90
2022-07-25T07:46:51.625Z,937.89
2022-07-25T07:47:51.547Z,937.89
2022-07-25T07:48:51.622Z,937.93
2022-07-25T07:49:51.568Z,937.93
2022-07-25T07:50:51.591Z,937.93
2022-07-25T07:51:51.608Z,937.90
2022-07-25T07:52:51.609Z,937.91
2022-07-25T07:53:51.635Z,937.93
2022-07-25T07:54:54.308Z,937.94
2022-07-25T07:55:51.650Z,937.91
2022-07-25T07:56:51.663Z,937.93
2022-07-25T07:57:51.678Z,937.95
2022-07-25T07:58:51.697Z,937.96
2022-07-25T07:59:51.706Z,937.96
2022-07-25T08:00:51.717Z,937.97
2022-07-25T08:01:51.873Z,937.98
2022-07-25T08:02:51.782Z,937.95
2022-07-25T08:03:51.758Z,937.93
2022-07-25T08:04:51.775Z,937.99
2022-07-25T08:05:51.921Z,937.97
2022-07-25T08:06:51.798Z,938.02
2022-07-25T08:07:51.815Z,938.02
2022-07-25T08:08:51.831Z,938.04
2022-07-25T08:09:51.848Z,938.02
2022-07-25T08:10:55.644Z,938.04
2022-07-25T08:11:51.869Z,938.06
2022-07-25T08:12:51.881Z,938.04
2022-07-25T08:13:51.898Z,938.03
2022-07-25T08:14:51.909Z,938.02
2022-07-25T08:15:51.975Z,938.05
2022-07-25T08:16:51.936Z,938.02
2022-07-25T08:17:51.952Z,938.01
2022-07-25T08:18:51.962Z,938.02
2022-07-25T08:19:51.979Z,938.04
2022-07-25T08:20:51.990Z,938.02
2022-07-25T08:21:52.004Z,938.01
2022-07-25T08:22:56.326Z,938.04
2022-07-25T08:23:52.036Z,938.03
2022-07-25T08:24:52.045Z,938.05
2022-07-25T08:25:52.060Z,938.06
2022-07-25T08:26:52.071Z,938.06
2022-07-25T08:27:52.085Z,938.07
2022-07-25T08:29:04.989Z,938.05
2022-07-25T08:29:52.114Z,938.10
2022-07-25T08:30:52.194Z,938.06
2022-07-25T08:31:52.187Z,938.10
2022-07-25T08:32:52.152Z,938.08
2022-07-25T08:33:52.172Z,938.13
2022-07-25T08:34:52.181Z,938.12
2022-07-25T08:35:52.206Z,938.12
2022-07-25T08:36:52.209Z,938.16
2022-07-25T08:37:52.220Z,938.13
2022-07-25T08:38:52.235Z,938.13
2022-07-25T08:39:52.249Z,938.13
2022-07-25T08:40:52.261Z,938.11
2022-07-25T08:41:52.276Z,938.14
2022-07-25T08:42:52.290Z,938.14
2022-07-25T08:43:52.303Z,938.17
2022-07-25T08:44:52.317Z,938.19
2022-07-25T08:45:52.336Z,938.24
2022-07-25T08:46:52.410Z,938.26
2022-07-25T08:47:52.356Z,938.25
2022-07-25T08:48:52.457Z,938.29
2022-07-25T08:49:52.385Z,938.30
2022-07-25T08:50:52.411Z,938.32
2022-07-25T08:51:52.420Z,938.32
2022-07-25T08:53:00.942Z,938.34
2022-07-25T08:53:52.438Z,938.32
2022-07-25T08:54:52.453Z,938.34
2022-07-25T08:55:52.466Z,938.28
2022-07-25T08:56:52.478Z,938.33
2022-07-25T08:57:52.493Z,938.32
2022-07-25T08:58:52.509Z,938.36
2022-07-25T08:59:52.524Z,938.37
2022-07-25T09:00:52.548Z,938.39
2022-07-25T09:01:52.618Z,938.36
2022-07-25T09:02:52.597Z,938.38
2022-07-25T09:03:52.572Z,938.41
2022-07-25T09:04:52.588Z,938.39
2022-07-25T09:05:52.602Z,938.43
2022-07-25T09:06:52.623Z,938.45
2022-07-25T09:07:52.627Z,938.42
2022-07-25T09:08:52.664Z,938.47
2022-07-25T09:09:52.656Z,938.51
2022-07-25T09:10:52.671Z,938.49
2022-07-25T09:11:52.683Z,938.57
2022-07-25T09:12:52.696Z,938.54
2022-07-25T09:13:52.710Z,938.59
2022-07-25T09:14:52.728Z,938.58
2022-07-25T09:15:52.815Z,938.56
2022-07-25T09:16:52.749Z,938.57
2022-07-25T09:17:52.763Z,938.58
2022-07-25T09:18:52.784Z,938.59
2022-07-25T09:19:52.794Z,938.53
2022-07-25T09:20:52.801Z,938.56
2022-07-25T09:21:52.817Z,938.54
2022-07-25T09:22:52.831Z,938.60
2022-07-25T09:23:52.844Z,938.64
2022-07-25T09:24:52.857Z,938.63
2022-07-25T09:25:52.872Z,938.63
2022-07-25T09:26:52.883Z,938.75
2022-07-25T09:27:52.897Z,938.79
2022-07-25T09:28:52.913Z,938.78
2022-07-25T09:29:52.925Z,938.81
2022-07-25T09:30:52.962Z,938.79
2022-07-25T09:31:52.958Z,938.81
2022-07-25T09:32:52.966Z,938.81
2022-07-25T09:33:52.977Z,938.84
2022-07-25T09:34:52.990Z,938.85
2022-07-25T09:35:53.009Z,938.85
2022-07-25T09:36:53.016Z,938.87
2022-07-25T09:37:53.034Z,938.87
2022-07-25T09:38:53.046Z,938.87
2022-07-25T09:39:53.061Z,938.86
2022-07-25T09:40:53.071Z,938.87
2022-07-25T09:41:53.088Z,938.88
2022-07-25T09:42:53.099Z,938.89
2022-07-25T09:43:53.116Z,938.95
2022-07-25T09:44:53.127Z,938.97
2022-07-25T09:45:53.239Z,938.98
2022-07-25T09:46:53.154Z,939.02
2022-07-25T09:47:53.168Z,939.03
2022-07-25T09:48:53.222Z,939.03
2022-07-25T09:49:53.193Z,939.04
2022-07-25T09:50:53.206Z,939.03
2022-07-25T09:51:53.220Z,939.07
2022-07-25T09:52:53.233Z,939.09
2022-07-25T09:53:53.248Z,939.06
2022-07-25T09:54:53.261Z,939.08
2022-07-25T09:55:53.273Z,939.09
2022-07-25T09:56:53.293Z,939.11
2022-07-25T09:57:53.305Z,939.14
2022-07-25T09:58:53.313Z,939.12
2022-07-25T09:59:53.332Z,939.12
2022-07-25T10:00:53.342Z,939.15
2022-07-25T10:01:53.421Z,939.15
2022-07-25T10:02:53.450Z,939.15
2022-07-25T10:03:53.382Z,939.15
2022-07-25T10:04:53.396Z,939.15
2022-07-25T10:05:53.409Z,939.17
2022-07-25T10:06:53.421Z,939.22
2022-07-25T10:07:53.437Z,939.23
2022-07-25T10:08:53.449Z,939.25
2022-07-25T10:09:53.460Z,939.25
2022-07-25T10:10:53.475Z,939.27
2022-07-25T10:11:53.489Z,939.25
2022-07-25T10:12:53.502Z,939.29
2022-07-25T10:13:53.516Z,939.27
2022-07-25T10:14:53.530Z,939.31
2022-07-25T10:15:53.542Z,939.26
2022-07-25T10:16:53.622Z,939.29
2022-07-25T10:17:53.568Z,939.29
2022-07-25T10:18:53.583Z,939.28
2022-07-25T10:19:58.569Z,939.27
2022-07-25T10:20:53.608Z,939.27
2022-07-25T10:21:53.623Z,939.25
2022-07-25T10:22:56.732Z,939.28
2022-07-25T10:23:53.650Z,939.25
2022-07-25T10:24:53.664Z,939.32
2022-07-25T10:25:53.676Z,939.34
2022-07-25T10:26:53.688Z,939.32
2022-07-25T10:27:53.703Z,939.37
2022-07-25T10:28:53.716Z,939.37
2022-07-25T10:29:53.730Z,939.37
2022-07-25T10:30:53.766Z,939.40
2022-07-25T10:31:53.756Z,939.40
2022-07-25T10:32:53.772Z,939.43
2022-07-25T10:33:53.783Z,939.42
2022-07-25T10:34:53.805Z,939.41
2022-07-25T10:35:53.814Z,939.43
2022-07-25T10:36:53.823Z,939.44
2022-07-25T10:37:54.238Z,939.44
2022-07-25T10:38:53.849Z,939.42
2022-07-25T10:39:53.864Z,939.45
2022-07-25T10:40:53.875Z,939.45
2022-07-25T10:41:53.888Z,939.48
2022-07-25T10:42:53.903Z,939.43
2022-07-25T10:43:53.921Z,939.47
2022-07-25T10:44:53.929Z,939.51
2022-07-25T10:45:53.983Z,939.47
2022-07-25T10:46:53.955Z,939.50
2022-07-25T10:47:53.972Z,939.53
2022-07-25T10:48:54.017Z,939.55
2022-07-25T10:50:14.554Z,939.58
2022-07-25T10:50:56.072Z,939.60
2022-07-25T10:51:54.023Z,939.58
2022-07-25T10:52:54.037Z,939.62
2022-07-25T10:53:54.053Z,939.64
2022-07-25T10:54:54.063Z,939.63
2022-07-25T10:56:05.345Z,939.64
2022-07-25T10:56:54.087Z,939.66
2022-07-25T10:58:16.217Z,939.72
2022-07-25T10:58:54.122Z,939.66
2022-07-25T10:59:54.128Z,939.68
2022-07-25T11:00:54.217Z,939.71
2022-07-25T11:01:54.333Z,939.67
2022-07-25T11:02:54.223Z,939.67
2022-07-25T11:03:54.184Z,939.65
2022-07-25T11:04:54.203Z,939.67
2022-07-25T11:05:54.209Z,939.74
2022-07-25T11:06:54.222Z,939.77
2022-07-25T11:08:20.218Z,939.73
2022-07-25T11:08:54.250Z,939.76
2022-07-25T11:09:54.263Z,939.79
2022-07-25T11:10:54.276Z,939.80
2022-07-25T11:11:54.293Z,939.83
2022-07-25T11:12:54.303Z,939.81
2022-07-25T11:13:54.316Z,939.79
2022-07-25T11:14:54.330Z,939.83
2022-07-25T11:15:54.691Z,939.81
2022-07-25T11:16:54.415Z,939.81
2022-07-25T11:17:54.372Z,939.83
2022-07-25T11:18:54.389Z,939.83
2022-07-25T11:19:54.395Z,939.84
2022-07-25T11:20:54.409Z,939.80
2022-07-25T11:21:54.422Z,939.83
2022-07-25T11:22:54.436Z,939.84
2022-07-25T11:23:54.448Z,939.78
2022-07-25T11:24:54.464Z,939.84
2022-07-25T11:25:54.477Z,939.87
2022-07-25T11:26:54.491Z,939.86
2022-07-25T11:27:54.501Z,939.85
2022-07-25T11:28:54.515Z,939.91
2022-07-25T11:29:54.529Z,939.89
2022-07-25T11:30:54.544Z,939.92
2022-07-25T11:31:54.615Z,939.96
2022-07-25T11:32:54.569Z,939.91
2022-07-25T11:33:54.583Z,939.89
2022-07-25T11:34:54.598Z,939.94
2022-07-25T11:35:54.621Z,939.95
2022-07-25T11:36:54.668Z,939.95
2022-07-25T11:37:54.636Z,939.95
2022-07-25T11:38:54.654Z,939.95
2022-07-25T11:39:56.226Z,939.96
2022-07-25T11:40:54.673Z,939.95
2022-07-25T11:41:54.689Z,939.95
2022-07-25T11:42:54.700Z,940.00
2022-07-25T11:43:54.717Z,940.03
2022-07-25T11:44:54.729Z,939.95
2022-07-25T11:45:54.800Z,939.95
2022-07-25T11:46:54.761Z,939.95
2022-07-25T11:47:54.767Z,939.96
2022-07-25T11:48:54.868Z,939.95
2022-07-25T11:49:54.805Z,939.97
2022-07-25T11:50:54.821Z,939.97
2022-07-25T11:51:54.823Z,939.98
2022-07-25T11:52:54.832Z,939.99
2022-07-25T11:53:54.849Z,940.01
2022-07-25T11:54:54.862Z,940.01
2022-07-25T11:55:54.875Z,939.99
2022-07-25T11:56:55.089Z,940.05
2022-07-25T11:57:54.904Z,940.04
2022-07-25T11:58:54.916Z,940.04
2022-07-25T11:59:54.931Z,940.07
2022-07-25T12:00:54.938Z,940.04
2022-07-25T12:01:54.995Z,940.05
2022-07-25T12:02:55.145Z,940.06
2022-07-25T12:03:55.151Z,940.04
2022-07-25T12:04:54.998Z,940.07
2022-07-25T12:05:55.008Z,940.06
2022-07-25T12:06:55.020Z,940.04
2022-07-25T12:07:55.036Z,940.05
2022-07-25T12:08:55.049Z,940.05
2022-07-25T12:09:55.063Z,940.06
2022-07-25T12:10:55.087Z,940.04
2022-07-25T12:11:55.096Z,940.03
2022-07-25T12:12:55.102Z,940.09
2022-07-25T12:13:55.114Z,940.05
2022-07-25T12:14:55.127Z,940.07
2022-07-25T12:15:55.144Z,940.13
2022-07-25T12:16:55.205Z,940.13
2022-07-25T12:17:55.168Z,940.12
2022-07-25T12:18:55.180Z,940.19
2022-07-25T12:19:55.193Z,940.20
2022-07-25T12:20:55.210Z,940.19
2022-07-25T12:21:55.219Z,940.20
2022-07-25T12:22:55.236Z,940.23
2022-07-25T12:23:55.249Z,940.22
2022-07-25T12:24:55.259Z,940.19
2022-07-25T12:25:55.276Z,940.26
2022-07-25T12:26:55.289Z,940.25
2022-07-25T12:27:55.299Z,940.26
2022-07-25T12:28:55.314Z,940.26